sensor_id;sensor_type;location;lat;lon;timestamp;P1;P2;P0
47081;PMS5003;33066;49.296;14.470;2024-03-23T00:53:54;26;24;
47081;PMS5003;33066;49.296;14.470;2024-03-23T00:56:19;30;25;
47081;PMS5003;33066;49.296;14.470;2024-03-23T00:58:45;24;18;
47081;PMS5003;33066;49.296;14.470;2024-03-23T01:01:11;24;20;
47081;PMS5003;33066;49.296;14.470;2024-03-23T01:03:36;25;20;
47081;PMS5003;33066;49.296;14.470;2024-03-23T01:06:01;31;27;
47081;PMS5003;33066;49.296;14.470;2024-03-23T01:08:27;26;20;
47081;PMS5003;33066;49.296;14.470;2024-03-23T01:10:55;23;20;
47081;PMS5003;33066;49.296;14.470;2024-03-23T01:13:18;29;26;
47081;PMS5003;33066;49.296;14.470;2024-03-23T01:15:47;28;28;
47081;PMS5003;33066;49.296;14.470;2024-03-23T01:18:08;25;21;
47081;PMS5003;33066;49.296;14.470;2024-03-23T01:20:34;27;20;
47081;PMS5003;33066;49.296;14.470;2024-03-23T01:22:59;25;21;
47081;PMS5003;33066;49.296;14.470;2024-03-23T01:25:25;21;16;
47081;PMS5003;33066;49.296;14.470;2024-03-23T01:27:50;33;27;
47081;PMS5003;33066;49.296;14.470;2024-03-23T01:30:16;55;50;
47081;PMS5003;33066;49.296;14.470;2024-03-23T01:32:41;65;59;
47081;PMS5003;33066;49.296;14.470;2024-03-23T01:35:07;55;44;
47081;PMS5003;33066;49.296;14.470;2024-03-23T01:37:33;53;42;
47081;PMS5003;33066;49.296;14.470;2024-03-23T01:39:58;85;66;
47081;PMS5003;33066;49.296;14.470;2024-03-23T01:42:23;41;38;
47081;PMS5003;33066;49.296;14.470;2024-03-23T01:44:49;37;34;
47081;PMS5003;33066;49.296;14.470;2024-03-23T01:47:14;42;32;
47081;PMS5003;33066;49.296;14.470;2024-03-23T01:49:39;45;39;
47081;PMS5003;33066;49.296;14.470;2024-03-23T01:52:05;49;40;
47081;PMS5003;33066;49.296;14.470;2024-03-23T01:54:31;45;38;
47081;PMS5003;33066;49.296;14.470;2024-03-23T01:56:56;46;39;
47081;PMS5003;33066;49.296;14.470;2024-03-23T01:59:21;32;31;
47081;PMS5003;33066;49.296;14.470;2024-03-23T02:01:46;33;27;
47081;PMS5003;33066;49.296;14.470;2024-03-23T02:04:12;30;28;
47081;PMS5003;33066;49.296;14.470;2024-03-23T02:06:37;25;19;
47081;PMS5003;33066;49.296;14.470;2024-03-23T02:09:02;25;23;
47081;PMS5003;33066;49.296;14.470;2024-03-23T02:11:28;27;25;
47081;PMS5003;33066;49.296;14.470;2024-03-23T02:13:53;23;21;
47081;PMS5003;33066;49.296;14.470;2024-03-23T02:16:19;19;17;
47081;PMS5003;33066;49.296;14.470;2024-03-23T02:18:44;30;27;
47081;PMS5003;33066;49.296;14.470;2024-03-23T02:21:10;28;22;
47081;PMS5003;33066;49.296;14.470;2024-03-23T02:23:35;23;20;
47081;PMS5003;33066;49.296;14.470;2024-03-23T02:26:00;29;25;
47081;PMS5003;33066;49.296;14.470;2024-03-23T02:28:26;26;20;
47081;PMS5003;33066;49.296;14.470;2024-03-23T02:30:52;23;16;
47081;PMS5003;33066;49.296;14.470;2024-03-23T02:33:17;15;15;
47081;PMS5003;33066;49.296;14.470;2024-03-23T02:35:42;25;24;
47081;PMS5003;33066;49.296;14.470;2024-03-23T02:38:07;19;18;
47081;PMS5003;33066;49.296;14.470;2024-03-23T02:40:33;33;33;
47081;PMS5003;33066;49.296;14.470;2024-03-23T02:42:59;32;28;
47081;PMS5003;33066;49.296;14.470;2024-03-23T02:45:24;37;28;
47081;PMS5003;33066;49.296;14.470;2024-03-23T02:47:49;31;25;
47081;PMS5003;33066;49.296;14.470;2024-03-23T02:50:14;29;25;
47081;PMS5003;33066;49.296;14.470;2024-03-23T02:52:39;28;26;
47081;PMS5003;33066;49.296;14.470;2024-03-23T02:55:05;25;21;
47081;PMS5003;33066;49.296;14.470;2024-03-23T02:57:32;31;29;
47081;PMS5003;33066;49.296;14.470;2024-03-23T02:59:56;26;20;
47081;PMS5003;33066;49.296;14.470;2024-03-23T03:02:21;33;26;
47081;PMS5003;33066;49.296;14.470;2024-03-23T03:04:47;35;31;
47081;PMS5003;33066;49.296;14.470;2024-03-23T03:07:12;35;28;
47081;PMS5003;33066;49.296;14.470;2024-03-23T03:09:38;28;23;
47081;PMS5003;33066;49.296;14.470;2024-03-23T03:12:03;19;19;
47081;PMS5003;33066;49.296;14.470;2024-03-23T03:14:29;21;19;
47081;PMS5003;33066;49.296;14.470;2024-03-23T03:16:54;21;20;
47081;PMS5003;33066;49.296;14.470;2024-03-23T03:19:20;26;20;
47081;PMS5003;33066;49.296;14.470;2024-03-23T03:21:45;23;19;
47081;PMS5003;33066;49.296;14.470;2024-03-23T03:24:11;18;15;
47081;PMS5003;33066;49.296;14.470;2024-03-23T03:26:37;24;23;
47081;PMS5003;33066;49.296;14.470;2024-03-23T03:29:02;22;22;
47081;PMS5003;33066;49.296;14.470;2024-03-23T03:31:27;21;16;
47081;PMS5003;33066;49.296;14.470;2024-03-23T03:33:53;32;24;
47081;PMS5003;33066;49.296;14.470;2024-03-23T03:36:18;20;20;
47081;PMS5003;33066;49.296;14.470;2024-03-23T03:38:43;25;25;
47081;PMS5003;33066;49.296;14.470;2024-03-23T03:41:09;22;21;
47081;PMS5003;33066;49.296;14.470;2024-03-23T03:43:34;22;16;
47081;PMS5003;33066;49.296;14.470;2024-03-23T03:46:00;27;23;
47081;PMS5003;33066;49.296;14.470;2024-03-23T03:48:24;22;20;
47081;PMS5003;33066;49.296;14.470;2024-03-23T03:50:50;27;25;
47081;PMS5003;33066;49.296;14.470;2024-03-23T03:53:15;26;22;
47081;PMS5003;33066;49.296;14.470;2024-03-23T03:55:40;25;25;
47081;PMS5003;33066;49.296;14.470;2024-03-23T03:58:05;26;22;
47081;PMS5003;33066;49.296;14.470;2024-03-23T04:00:31;23;23;
47081;PMS5003;33066;49.296;14.470;2024-03-23T04:02:57;26;21;
47081;PMS5003;33066;49.296;14.470;2024-03-23T04:05:22;26;24;
47081;PMS5003;33066;49.296;14.470;2024-03-23T04:07:48;22;22;
47081;PMS5003;33066;49.296;14.470;2024-03-23T04:13:01;24;23;
47081;PMS5003;33066;49.296;14.470;2024-03-23T04:15:26;23;23;
47081;PMS5003;33066;49.296;14.470;2024-03-23T04:17:51;24;22;
47081;PMS5003;33066;49.296;14.470;2024-03-23T04:20:17;28;26;
47081;PMS5003;33066;49.296;14.470;2024-03-23T04:22:43;35;27;
47081;PMS5003;33066;49.296;14.470;2024-03-23T04:25:08;31;26;
47081;PMS5003;33066;49.296;14.470;2024-03-23T04:27:34;54;49;
47081;PMS5003;33066;49.296;14.470;2024-03-23T04:30:00;35;33;
47081;PMS5003;33066;49.296;14.470;2024-03-23T04:32:25;21;20;
47081;PMS5003;33066;49.296;14.470;2024-03-23T04:34:50;32;28;
47081;PMS5003;33066;49.296;14.470;2024-03-23T04:37:16;49;45;
47081;PMS5003;33066;49.296;14.470;2024-03-23T04:39:41;23;19;
47081;PMS5003;33066;49.296;14.470;2024-03-23T04:42:07;22;20;
47081;PMS5003;33066;49.296;14.470;2024-03-23T04:44:32;46;46;
47081;PMS5003;33066;49.296;14.470;2024-03-23T04:46:59;32;28;
47081;PMS5003;33066;49.296;14.470;2024-03-23T04:49:24;66;62;
47081;PMS5003;33066;49.296;14.470;2024-03-23T04:51:49;65;62;
47081;PMS5003;33066;49.296;14.470;2024-03-23T04:54:14;24;22;
47081;PMS5003;33066;49.296;14.470;2024-03-23T04:56:39;31;27;
47081;PMS5003;33066;49.296;14.470;2024-03-23T04:59:05;24;23;
47081;PMS5003;33066;49.296;14.470;2024-03-23T05:01:30;30;27;
47081;PMS5003;33066;49.296;14.470;2024-03-23T05:03:57;55;53;
47081;PMS5003;33066;49.296;14.470;2024-03-23T05:06:22;30;30;
47081;PMS5003;33066;49.296;14.470;2024-03-23T05:08:47;45;44;
47081;PMS5003;33066;49.296;14.470;2024-03-23T05:11:13;27;24;
47081;PMS5003;33066;49.296;14.470;2024-03-23T05:13:38;30;29;
47081;PMS5003;33066;49.296;14.470;2024-03-23T05:16:04;36;32;
47081;PMS5003;33066;49.296;14.470;2024-03-23T05:18:29;25;19;
47081;PMS5003;33066;49.296;14.470;2024-03-23T05:20:55;24;23;
47081;PMS5003;33066;49.296;14.470;2024-03-23T05:23:20;57;54;
47081;PMS5003;33066;49.296;14.470;2024-03-23T05:25:45;44;39;
47081;PMS5003;33066;49.296;14.470;2024-03-23T05:28:12;68;64;
47081;PMS5003;33066;49.296;14.470;2024-03-23T05:30:37;77;74;
47081;PMS5003;33066;49.296;14.470;2024-03-23T05:33:02;25;23;
47081;PMS5003;33066;49.296;14.470;2024-03-23T05:35:27;51;44;
47081;PMS5003;33066;49.296;14.470;2024-03-23T05:37:52;45;38;
47081;PMS5003;33066;49.296;14.470;2024-03-23T05:40:18;36;30;
47081;PMS5003;33066;49.296;14.470;2024-03-23T05:42:42;33;30;
47081;PMS5003;33066;49.296;14.470;2024-03-23T05:45:08;21;21;
47081;PMS5003;33066;49.296;14.470;2024-03-23T05:47:34;29;24;
47081;PMS5003;33066;49.296;14.470;2024-03-23T05:49:59;43;38;
47081;PMS5003;33066;49.296;14.470;2024-03-23T05:52:25;60;57;
47081;PMS5003;33066;49.296;14.470;2024-03-23T05:54:52;41;39;
47081;PMS5003;33066;49.296;14.470;2024-03-23T05:57:17;22;18;
47081;PMS5003;33066;49.296;14.470;2024-03-23T05:59:42;28;28;
47081;PMS5003;33066;49.296;14.470;2024-03-23T06:02:08;56;54;
47081;PMS5003;33066;49.296;14.470;2024-03-23T06:04:33;24;23;
47081;PMS5003;33066;49.296;14.470;2024-03-23T06:06:58;24;24;
47081;PMS5003;33066;49.296;14.470;2024-03-23T06:09:24;40;37;
47081;PMS5003;33066;49.296;14.470;2024-03-23T06:11:49;42;41;
47081;PMS5003;33066;49.296;14.470;2024-03-23T06:14:15;20;18;
47081;PMS5003;33066;49.296;14.470;2024-03-23T06:16:40;27;24;
47081;PMS5003;33066;49.296;14.470;2024-03-23T06:19:06;25;18;
47081;PMS5003;33066;49.296;14.470;2024-03-23T06:21:32;25;23;
47081;PMS5003;33066;49.296;14.470;2024-03-23T06:23:56;25;24;
47081;PMS5003;33066;49.296;14.470;2024-03-23T06:26:22;28;25;
47081;PMS5003;33066;49.296;14.470;2024-03-23T06:28:47;19;16;
47081;PMS5003;33066;49.296;14.470;2024-03-23T06:31:13;23;16;
47081;PMS5003;33066;49.296;14.470;2024-03-23T06:33:38;29;27;
47081;PMS5003;33066;49.296;14.470;2024-03-23T06:36:05;57;45;
47081;PMS5003;33066;49.296;14.470;2024-03-23T06:38:30;50;50;
47081;PMS5003;33066;49.296;14.470;2024-03-23T06:40:56;41;38;
47081;PMS5003;33066;49.296;14.470;2024-03-23T06:43:20;50;39;
47081;PMS5003;33066;49.296;14.470;2024-03-23T06:48:12;18;15;
47081;PMS5003;33066;49.296;14.470;2024-03-23T06:50:37;24;18;
47081;PMS5003;33066;49.296;14.470;2024-03-23T06:53:02;33;28;
47081;PMS5003;33066;49.296;14.470;2024-03-23T06:55:27;35;31;
47081;PMS5003;33066;49.296;14.470;2024-03-23T06:57:52;24;18;
47081;PMS5003;33066;49.296;14.470;2024-03-23T07:00:18;18;17;
47081;PMS5003;33066;49.296;14.470;2024-03-23T07:02:44;27;17;
47081;PMS5003;33066;49.296;14.470;2024-03-23T07:05:09;21;17;
47081;PMS5003;33066;49.296;14.470;2024-03-23T07:07:35;19;16;
47081;PMS5003;33066;49.296;14.470;2024-03-23T07:10:00;14;14;
47081;PMS5003;33066;49.296;14.470;2024-03-23T07:12:26;19;19;
47081;PMS5003;33066;49.296;14.470;2024-03-23T07:14:52;23;17;
47081;PMS5003;33066;49.296;14.470;2024-03-23T07:17:17;17;13;
47081;PMS5003;33066;49.296;14.470;2024-03-23T07:19:42;15;13;
47081;PMS5003;33066;49.296;14.470;2024-03-23T07:22:07;19;16;
47081;PMS5003;33066;49.296;14.470;2024-03-23T07:24:32;19;14;
47081;PMS5003;33066;49.296;14.470;2024-03-23T07:26:58;15;12;
47081;PMS5003;33066;49.296;14.470;2024-03-23T07:29:24;17;10;
47081;PMS5003;33066;49.296;14.470;2024-03-23T07:31:49;19;12;
47081;PMS5003;33066;49.296;14.470;2024-03-23T07:34:14;15;10;
47081;PMS5003;33066;49.296;14.470;2024-03-23T07:36:40;11;9;
47081;PMS5003;33066;49.296;14.470;2024-03-23T07:39:05;11;11;
47081;PMS5003;33066;49.296;14.470;2024-03-23T07:41:30;8;7;
47081;PMS5003;33066;49.296;14.470;2024-03-23T07:43:55;7;6;
47081;PMS5003;33066;49.296;14.470;2024-03-23T07:46:21;13;10;
47081;PMS5003;33066;49.296;14.470;2024-03-23T07:48:46;14;11;
47081;PMS5003;33066;49.296;14.470;2024-03-23T07:51:15;12;11;
47081;PMS5003;33066;49.296;14.470;2024-03-23T07:53:38;12;8;
47081;PMS5003;33066;49.296;14.470;2024-03-23T07:56:05;10;9;
47081;PMS5003;33066;49.296;14.470;2024-03-23T07:58:29;10;10;
47081;PMS5003;33066;49.296;14.470;2024-03-23T08:00:55;8;8;
47081;PMS5003;33066;49.296;14.470;2024-03-23T08:03:20;9;9;
47081;PMS5003;33066;49.296;14.470;2024-03-23T08:05:45;9;7;
47081;PMS5003;33066;49.296;14.470;2024-03-23T08:08:10;12;8;
47081;PMS5003;33066;49.296;14.470;2024-03-23T08:10:36;10;9;
47081;PMS5003;33066;49.296;14.470;2024-03-23T08:13:02;8;8;
47081;PMS5003;33066;49.296;14.470;2024-03-23T08:15:29;11;10;
47081;PMS5003;33066;49.296;14.470;2024-03-23T08:17:52;6;6;
47081;PMS5003;33066;49.296;14.470;2024-03-23T08:20:17;9;9;
47081;PMS5003;33066;49.296;14.470;2024-03-23T08:22:43;7;7;
47081;PMS5003;33066;49.296;14.470;2024-03-23T08:25:08;10;9;
47081;PMS5003;33066;49.296;14.470;2024-03-23T08:27:33;6;6;
47081;PMS5003;33066;49.296;14.470;2024-03-23T08:29:58;10;9;
47081;PMS5003;33066;49.296;14.470;2024-03-23T08:32:24;9;6;
47081;PMS5003;33066;49.296;14.470;2024-03-23T08:34:49;7;7;
47081;PMS5003;33066;49.296;14.470;2024-03-23T08:37:14;11;7;
47081;PMS5003;33066;49.296;14.470;2024-03-23T08:39:42;6;6;
47081;PMS5003;33066;49.296;14.470;2024-03-23T08:42:05;7;5;
47081;PMS5003;33066;49.296;14.470;2024-03-23T08:44:31;3;2;
47081;PMS5003;33066;49.296;14.470;2024-03-23T08:46:56;13;11;
47081;PMS5003;33066;49.296;14.470;2024-03-23T08:49:21;7;7;
47081;PMS5003;33066;49.296;14.470;2024-03-23T08:51:46;8;3;
47081;PMS5003;33066;49.296;14.470;2024-03-23T08:54:12;4;4;
47081;PMS5003;33066;49.296;14.470;2024-03-23T08:56:37;3;3;
47081;PMS5003;33066;49.296;14.470;2024-03-23T08:59:02;6;5;
47081;PMS5003;33066;49.296;14.470;2024-03-23T09:01:27;4;4;
47081;PMS5003;33066;49.296;14.470;2024-03-23T09:03:52;6;5;
47081;PMS5003;33066;49.296;14.470;2024-03-23T09:06:18;7;6;
47081;PMS5003;33066;49.296;14.470;2024-03-23T09:08:43;3;3;
47081;PMS5003;33066;49.296;14.470;2024-03-23T09:11:09;4;4;
47081;PMS5003;33066;49.296;14.470;2024-03-23T09:13:33;4;3;
47081;PMS5003;33066;49.296;14.470;2024-03-23T09:15:59;6;4;
47081;PMS5003;33066;49.296;14.470;2024-03-23T09:18:24;4;4;
47081;PMS5003;33066;49.296;14.470;2024-03-23T09:20:49;6;5;
47081;PMS5003;33066;49.296;14.470;2024-03-23T09:23:14;5;5;
47081;PMS5003;33066;49.296;14.470;2024-03-23T09:25:39;5;3;
47081;PMS5003;33066;49.296;14.470;2024-03-23T09:28:05;5;5;
47081;PMS5003;33066;49.296;14.470;2024-03-23T09:30:30;5;5;
47081;PMS5003;33066;49.296;14.470;2024-03-23T09:32:55;4;4;
47081;PMS5003;33066;49.296;14.470;2024-03-23T09:35:20;4;3;
47081;PMS5003;33066;49.296;14.470;2024-03-23T09:37:45;5;5;
47081;PMS5003;33066;49.296;14.470;2024-03-23T09:40:11;5;3;
47081;PMS5003;33066;49.296;14.470;2024-03-23T09:42:36;5;5;
47081;PMS5003;33066;49.296;14.470;2024-03-23T09:45:01;6;5;
47081;PMS5003;33066;49.296;14.470;2024-03-23T09:47:27;4;4;
47081;PMS5003;33066;49.296;14.470;2024-03-23T09:49:52;5;4;
47081;PMS5003;33066;49.296;14.470;2024-03-23T09:52:17;8;6;
47081;PMS5003;33066;49.296;14.470;2024-03-23T09:54:43;8;6;
47081;PMS5003;33066;49.296;14.470;2024-03-23T09:57:08;7;7;
47081;PMS5003;33066;49.296;14.470;2024-03-23T09:59:33;18;16;
47081;PMS5003;33066;49.296;14.470;2024-03-23T10:01:59;3;3;
47081;PMS5003;33066;49.296;14.470;2024-03-23T10:06:49;13;12;
47081;PMS5003;33066;49.296;14.470;2024-03-23T10:09:16;29;29;
47081;PMS5003;33066;49.296;14.470;2024-03-23T10:11:40;4;3;
47081;PMS5003;33066;49.296;14.470;2024-03-23T10:14:05;3;3;
47081;PMS5003;33066;49.296;14.470;2024-03-23T10:16:30;5;4;
47081;PMS5003;33066;49.296;14.470;2024-03-23T10:18:55;5;5;
47081;PMS5003;33066;49.296;14.470;2024-03-23T10:21:20;13;10;
47081;PMS5003;33066;49.296;14.470;2024-03-23T10:23:46;4;4;
47081;PMS5003;33066;49.296;14.470;2024-03-23T10:26:15;4;3;
47081;PMS5003;33066;49.296;14.470;2024-03-23T10:28:37;5;5;
47081;PMS5003;33066;49.296;14.470;2024-03-23T10:31:04;3;3;
47081;PMS5003;33066;49.296;14.470;2024-03-23T10:33:27;3;3;
47081;PMS5003;33066;49.296;14.470;2024-03-23T10:35:53;20;19;
47081;PMS5003;33066;49.296;14.470;2024-03-23T10:38:18;28;28;
47081;PMS5003;33066;49.296;14.470;2024-03-23T10:40:43;3;3;
47081;PMS5003;33066;49.296;14.470;2024-03-23T10:43:09;3;3;
47081;PMS5003;33066;49.296;14.470;2024-03-23T10:45:34;2;2;
47081;PMS5003;33066;49.296;14.470;2024-03-23T10:47:59;1;1;
47081;PMS5003;33066;49.296;14.470;2024-03-23T10:50:25;12;10;
47081;PMS5003;33066;49.296;14.470;2024-03-23T10:52:52;12;12;
47081;PMS5003;33066;49.296;14.470;2024-03-23T10:55:16;13;12;
47081;PMS5003;33066;49.296;14.470;2024-03-23T10:57:42;3;3;
47081;PMS5003;33066;49.296;14.470;2024-03-23T11:00:07;1;1;
47081;PMS5003;33066;49.296;14.470;2024-03-23T11:02:32;3;2;
47081;PMS5003;33066;49.296;14.470;2024-03-23T11:04:57;4;4;
47081;PMS5003;33066;49.296;14.470;2024-03-23T11:07:28;4;4;
47081;PMS5003;33066;49.296;14.470;2024-03-23T11:09:47;2;2;
47081;PMS5003;33066;49.296;14.470;2024-03-23T11:12:17;5;4;
47081;PMS5003;33066;49.296;14.470;2024-03-23T11:14:38;1;1;
47081;PMS5003;33066;49.296;14.470;2024-03-23T11:17:08;3;1;
47081;PMS5003;33066;49.296;14.470;2024-03-23T11:19:34;3;2;
47081;PMS5003;33066;49.296;14.470;2024-03-23T11:21:54;3;2;
47081;PMS5003;33066;49.296;14.470;2024-03-23T11:24:19;4;4;
47081;PMS5003;33066;49.296;14.470;2024-03-23T11:26:44;3;3;
47081;PMS5003;33066;49.296;14.470;2024-03-23T11:29:09;3;3;
47081;PMS5003;33066;49.296;14.470;2024-03-23T11:31:36;4;3;
47081;PMS5003;33066;49.296;14.470;2024-03-23T11:34:02;3;3;
47081;PMS5003;33066;49.296;14.470;2024-03-23T11:36:26;6;3;
47081;PMS5003;33066;49.296;14.470;2024-03-23T11:38:50;5;3;
47081;PMS5003;33066;49.296;14.470;2024-03-23T11:41:15;3;3;
47081;PMS5003;33066;49.296;14.470;2024-03-23T11:43:41;2;2;
47081;PMS5003;33066;49.296;14.470;2024-03-23T11:46:06;5;4;
47081;PMS5003;33066;49.296;14.470;2024-03-23T11:48:32;2;2;
47081;PMS5003;33066;49.296;14.470;2024-03-23T11:50:57;6;5;
47081;PMS5003;33066;49.296;14.470;2024-03-23T11:53:22;8;5;
47081;PMS5003;33066;49.296;14.470;2024-03-23T11:55:48;6;6;
47081;PMS5003;33066;49.296;14.470;2024-03-23T11:58:13;7;5;
47081;PMS5003;33066;49.296;14.470;2024-03-23T12:00:41;6;3;
47081;PMS5003;33066;49.296;14.470;2024-03-23T12:03:05;8;7;
47081;PMS5003;33066;49.296;14.470;2024-03-23T12:05:29;11;8;
47081;PMS5003;33066;49.296;14.470;2024-03-23T12:07:54;4;3;
47081;PMS5003;33066;49.296;14.470;2024-03-23T12:10:19;4;4;
47081;PMS5003;33066;49.296;14.470;2024-03-23T12:12:45;6;4;
47081;PMS5003;33066;49.296;14.470;2024-03-23T12:15:10;5;5;
47081;PMS5003;33066;49.296;14.470;2024-03-23T12:17:35;4;4;
47081;PMS5003;33066;49.296;14.470;2024-03-23T12:20:01;5;4;
47081;PMS5003;33066;49.296;14.470;2024-03-23T12:22:26;2;2;
47081;PMS5003;33066;49.296;14.470;2024-03-23T12:24:52;7;5;
47081;PMS5003;33066;49.296;14.470;2024-03-23T12:27:16;3;3;
47081;PMS5003;33066;49.296;14.470;2024-03-23T12:29:42;3;2;
47081;PMS5003;33066;49.296;14.470;2024-03-23T12:32:07;5;5;
47081;PMS5003;33066;49.296;14.470;2024-03-23T12:34:33;17;17;
47081;PMS5003;33066;49.296;14.470;2024-03-23T12:36:58;3;3;
47081;PMS5003;33066;49.296;14.470;2024-03-23T12:39:23;2;2;
47081;PMS5003;33066;49.296;14.470;2024-03-23T12:41:49;4;4;
47081;PMS5003;33066;49.296;14.470;2024-03-23T12:44:14;4;4;
47081;PMS5003;33066;49.296;14.470;2024-03-23T12:46:40;8;5;
47081;PMS5003;33066;49.296;14.470;2024-03-23T12:49:05;2;2;
47081;PMS5003;33066;49.296;14.470;2024-03-23T12:51:31;2;2;
47081;PMS5003;33066;49.296;14.470;2024-03-23T12:53:56;6;5;
47081;PMS5003;33066;49.296;14.470;2024-03-23T12:56:22;8;8;
47081;PMS5003;33066;49.296;14.470;2024-03-23T12:58:48;1;1;
47081;PMS5003;33066;49.296;14.470;2024-03-23T13:01:13;3;3;
47081;PMS5003;33066;49.296;14.470;2024-03-23T13:03:38;4;2;
47081;PMS5003;33066;49.296;14.470;2024-03-23T13:06:04;9;6;
47081;PMS5003;33066;49.296;14.470;2024-03-23T13:08:29;22;22;
47081;PMS5003;33066;49.296;14.470;2024-03-23T13:10:54;13;13;
47081;PMS5003;33066;49.296;14.470;2024-03-23T13:13:19;12;11;
47081;PMS5003;33066;49.296;14.470;2024-03-23T13:15:49;2;2;
47081;PMS5003;33066;49.296;14.470;2024-03-23T13:18:10;3;3;
47081;PMS5003;33066;49.296;14.470;2024-03-23T13:20:35;3;2;
47081;PMS5003;33066;49.296;14.470;2024-03-23T13:23:00;9;9;
47081;PMS5003;33066;49.296;14.470;2024-03-23T13:25:26;6;4;
47081;PMS5003;33066;49.296;14.470;2024-03-23T13:27:51;5;4;
47081;PMS5003;33066;49.296;14.470;2024-03-23T13:30:17;4;4;
47081;PMS5003;33066;49.296;14.470;2024-03-23T13:32:41;4;3;
47081;PMS5003;33066;49.296;14.470;2024-03-23T13:35:07;5;4;
47081;PMS5003;33066;49.296;14.470;2024-03-23T13:37:32;3;2;
47081;PMS5003;33066;49.296;14.470;2024-03-23T13:39:57;1;1;
47081;PMS5003;33066;49.296;14.470;2024-03-23T13:42:22;1;1;
47081;PMS5003;33066;49.296;14.470;2024-03-23T13:44:48;1;1;
47081;PMS5003;33066;49.296;14.470;2024-03-23T13:47:13;2;2;
47081;PMS5003;33066;49.296;14.470;2024-03-23T13:49:39;2;2;
47081;PMS5003;33066;49.296;14.470;2024-03-23T13:52:04;1;0;
47081;PMS5003;33066;49.296;14.470;2024-03-23T13:54:29;1;1;
47081;PMS5003;33066;49.296;14.470;2024-03-23T13:56:55;1;1;
47081;PMS5003;33066;49.296;14.470;2024-03-23T13:59:20;0;0;
47081;PMS5003;33066;49.296;14.470;2024-03-23T14:01:45;0;0;
47081;PMS5003;33066;49.296;14.470;2024-03-23T14:04:11;4;4;
47081;PMS5003;33066;49.296;14.470;2024-03-23T14:06:36;1;1;
47081;PMS5003;33066;49.296;14.470;2024-03-23T14:09:01;1;1;
47081;PMS5003;33066;49.296;14.470;2024-03-23T14:11:26;1;1;
47081;PMS5003;33066;49.296;14.470;2024-03-23T14:13:52;4;3;
47081;PMS5003;33066;49.296;14.470;2024-03-23T14:16:17;4;4;
47081;PMS5003;33066;49.296;14.470;2024-03-23T14:18:42;3;1;
47081;PMS5003;33066;49.296;14.470;2024-03-23T14:21:07;4;2;
47081;PMS5003;33066;49.296;14.470;2024-03-23T14:23:33;4;3;
47081;PMS5003;33066;49.296;14.470;2024-03-23T14:25:58;1;1;
47081;PMS5003;33066;49.296;14.470;2024-03-23T14:28:23;4;3;
47081;PMS5003;33066;49.296;14.470;2024-03-23T14:30:49;1;1;
47081;PMS5003;33066;49.296;14.470;2024-03-23T14:33:14;6;6;
47081;PMS5003;33066;49.296;14.470;2024-03-23T14:35:39;3;2;
47081;PMS5003;33066;49.296;14.470;2024-03-23T14:38:04;2;2;
47081;PMS5003;33066;49.296;14.470;2024-03-23T14:40:30;1;1;
47081;PMS5003;33066;49.296;14.470;2024-03-23T14:42:55;2;2;
47081;PMS5003;33066;49.296;14.470;2024-03-23T14:45:21;5;4;
47081;PMS5003;33066;49.296;14.470;2024-03-23T14:47:46;4;3;
47081;PMS5003;33066;49.296;14.470;2024-03-23T14:50:11;2;2;
47081;PMS5003;33066;49.296;14.470;2024-03-23T14:52:36;1;1;
47081;PMS5003;33066;49.296;14.470;2024-03-23T14:55:02;1;1;
47081;PMS5003;33066;49.296;14.470;2024-03-23T14:57:27;2;1;
47081;PMS5003;33066;49.296;14.470;2024-03-23T14:59:52;2;2;
47081;PMS5003;33066;49.296;14.470;2024-03-23T15:02:17;2;2;
47081;PMS5003;33066;49.296;14.470;2024-03-23T15:04:43;5;5;
47081;PMS5003;33066;49.296;14.470;2024-03-23T15:07:08;5;3;
47081;PMS5003;33066;49.296;14.470;2024-03-23T15:09:33;4;3;
47081;PMS5003;33066;49.296;14.470;2024-03-23T15:11:59;2;1;
47081;PMS5003;33066;49.296;14.470;2024-03-23T15:14:24;4;4;
47081;PMS5003;33066;49.296;14.470;2024-03-23T15:16:49;4;3;
47081;PMS5003;33066;49.296;14.470;2024-03-23T15:19:14;5;2;
47081;PMS5003;33066;49.296;14.470;2024-03-23T15:21:40;3;2;
47081;PMS5003;33066;49.296;14.470;2024-03-23T15:24:05;1;1;
47081;PMS5003;33066;49.296;14.470;2024-03-23T15:26:30;2;2;
47081;PMS5003;33066;49.296;14.470;2024-03-23T15:28:56;3;2;
47081;PMS5003;33066;49.296;14.470;2024-03-23T15:31:21;0;0;
47081;PMS5003;33066;49.296;14.470;2024-03-23T15:33:46;3;3;
47081;PMS5003;33066;49.296;14.470;2024-03-23T15:36:11;3;2;
47081;PMS5003;33066;49.296;14.470;2024-03-23T15:38:37;3;3;
47081;PMS5003;33066;49.296;14.470;2024-03-23T15:41:02;3;3;
47081;PMS5003;33066;49.296;14.470;2024-03-23T15:43:27;31;23;
47081;PMS5003;33066;49.296;14.470;2024-03-23T15:45:54;5;5;
47081;PMS5003;33066;49.296;14.470;2024-03-23T15:48:18;3;3;
47081;PMS5003;33066;49.296;14.470;2024-03-23T15:53:08;4;3;
47081;PMS5003;33066;49.296;14.470;2024-03-23T15:55:33;2;2;
47081;PMS5003;33066;49.296;14.470;2024-03-23T15:57:59;2;2;
47081;PMS5003;33066;49.296;14.470;2024-03-23T16:00:24;3;2;
47081;PMS5003;33066;49.296;14.470;2024-03-23T16:02:49;3;3;
47081;PMS5003;33066;49.296;14.470;2024-03-23T16:05:15;1;1;
47081;PMS5003;33066;49.296;14.470;2024-03-23T16:07:40;1;1;
47081;PMS5003;33066;49.296;14.470;2024-03-23T16:10:06;3;2;
47081;PMS5003;33066;49.296;14.470;2024-03-23T16:12:31;2;2;
47081;PMS5003;33066;49.296;14.470;2024-03-23T16:14:56;4;3;
47081;PMS5003;33066;49.296;14.470;2024-03-23T16:17:21;5;2;
47081;PMS5003;33066;49.296;14.470;2024-03-23T16:19:47;3;3;
47081;PMS5003;33066;49.296;14.470;2024-03-23T16:22:12;3;3;
47081;PMS5003;33066;49.296;14.470;2024-03-23T16:24:37;1;1;
47081;PMS5003;33066;49.296;14.470;2024-03-23T16:27:03;2;2;
47081;PMS5003;33066;49.296;14.470;2024-03-23T16:29:28;3;3;
47081;PMS5003;33066;49.296;14.470;2024-03-23T16:31:53;4;2;
47081;PMS5003;33066;49.296;14.470;2024-03-23T16:34:18;6;5;
47081;PMS5003;33066;49.296;14.470;2024-03-23T16:36:44;4;4;
47081;PMS5003;33066;49.296;14.470;2024-03-23T16:39:09;8;4;
47081;PMS5003;33066;49.296;14.470;2024-03-23T16:41:34;7;7;
47081;PMS5003;33066;49.296;14.470;2024-03-23T16:44:00;5;4;
47081;PMS5003;33066;49.296;14.470;2024-03-23T16:46:26;4;3;
47081;PMS5003;33066;49.296;14.470;2024-03-23T16:48:51;1;1;
47081;PMS5003;33066;49.296;14.470;2024-03-23T16:51:16;2;2;
47081;PMS5003;33066;49.296;14.470;2024-03-23T16:53:41;3;3;
47081;PMS5003;33066;49.296;14.470;2024-03-23T16:56:07;8;5;
47081;PMS5003;33066;49.296;14.470;2024-03-23T16:58:32;8;5;
47081;PMS5003;33066;49.296;14.470;2024-03-23T17:01:02;3;3;
47081;PMS5003;33066;49.296;14.470;2024-03-23T17:03:23;3;2;
47081;PMS5003;33066;49.296;14.470;2024-03-23T17:05:49;4;4;
47081;PMS5003;33066;49.296;14.470;2024-03-23T17:08:13;4;3;